Time;durP1;ratioP1;P1;durP2;ratioP2;P2;SDS_P1;SDS_P2;PMS_P1;PMS_P2;Temp;Humidity;BMP_temperature;BMP_pressure;BME280_temperature;BME280_humidity;BME280_pressure;Samples;Min_cycle;Max_cycle;Signal;HPM_P1;HPM_P2
2023/07/10 00:00:48;;;;;;;3.92;3.72;;;;;;;;;;5078206;28;20025;-20
2023/07/10 00:03:14;;;;;;;3.97;3.78;;;;;;;;;;5077889;28;20021;-21
2023/07/10 00:05:40;;;;;;;3.67;3.47;;;;;;;;;;5077876;28;20067;-23
2023/07/10 00:08:06;;;;;;;3.63;3.42;;;;;;;;;;5077873;28;20028;-20
2023/07/10 00:10:32;;;;;;;3.60;3.40;;;;;;;;;;5077841;28;20032;-20
2023/07/10 00:12:58;;;;;;;3.30;3.10;;;;;;;;;;5077688;28;20470;-20
2023/07/10 00:15:24;;;;;;;4.15;3.85;;;;;;;;;;5077761;28;20024;-21
2023/07/10 00:17:51;;;;;;;3.35;3.15;;;;;;;;;;5077707;28;20044;-19
2023/07/10 00:20:18;;;;;;;3.50;3.30;;;;;;;;;;5077883;28;20082;-19
2023/07/10 00:22:44;;;;;;;3.97;3.78;;;;;;;;;;5077519;28;20024;-17
2023/07/10 00:25:11;;;;;;;4.22;4.00;;;;;;;;;;5077825;28;20021;-22
2023/07/10 00:27:37;;;;;;;3.38;3.17;;;;;;;;;;5077555;28;20480;-19
2023/07/10 00:30:06;;;;;;;3.78;3.58;;;;;;;;;;5077480;28;20035;-21
2023/07/10 00:32:32;;;;;;;3.92;3.72;;;;;;;;;;5077636;28;20028;-17
2023/07/10 00:34:58;;;;;;;3.58;3.38;;;;;;;;;;5077376;28;20052;-20
2023/07/10 00:37:24;;;;;;;3.67;3.47;;;;;;;;;;5077357;28;20043;-26
2023/07/10 00:39:50;;;;;;;3.60;3.40;;;;;;;;;;5059650;28;20029;-22
2023/07/10 00:42:21;;;;;;;3.80;3.60;;;;;;;;;;5076320;28;20112;-19
2023/07/10 00:44:51;;;;;;;3.28;3.17;;;;;;;;;;5077215;28;20025;-22
2023/07/10 00:47:31;;;;;;;3.60;3.40;;;;;;;;;;5077508;28;20398;-21
2023/07/10 00:50:11;;;;;;;3.47;3.28;;;;;;;;;;5077153;28;20048;-21
2023/07/10 00:52:42;;;;;;;3.63;3.43;;;;;;;;;;5077444;28;20440;-21
2023/07/10 00:55:08;;;;;;;;;;;;;;;;;;5077488;28;20255;-25
2023/07/10 00:57:35;;;;;;;3.63;3.42;;;;;;;;;;5059332;28;19970;-18
2023/07/10 01:00:13;;;;;;;3.95;3.75;;;;;;;;;;5077135;28;20021;-18
2023/07/10 01:02:39;;;;;;;3.97;3.78;;;;;;;;;;5059212;28;20020;-20
2023/07/10 01:05:05;;;;;;;3.63;3.42;;;;;;;;;;5076638;28;20039;-27
2023/07/10 01:07:34;;;;;;;3.47;3.28;;;;;;;;;;5077122;28;20104;-21
2023/07/10 01:10:02;;;;;;;3.42;3.22;;;;;;;;;;5076781;28;20091;-19
2023/07/10 01:12:29;;;;;;;3.63;3.42;;;;;;;;;;5076634;28;20055;-20
2023/07/10 01:14:55;;;;;;;3.72;3.53;;;;;;;;;;5076664;28;20016;-20
2023/07/10 01:17:21;;;;;;;3.72;3.53;;;;;;;;;;5076605;28;20020;-21
2023/07/10 01:19:48;;;;;;;4.00;3.80;;;;;;;;;;5058971;28;20333;-20
2023/07/10 01:22:15;;;;;;;3.45;3.25;;;;;;;;;;5058730;28;20042;-20
2023/07/10 01:24:42;;;;;;;2.83;2.72;;;;;;;;;;5076763;28;20561;-22
2023/07/10 01:27:12;;;;;;;3.30;3.17;;;;;;;;;;5076728;28;20032;-21
2023/07/10 01:29:42;;;;;;;3.33;3.13;;;;;;;;;;5076395;28;20082;-17
2023/07/10 01:32:09;;;;;;;3.95;3.75;;;;;;;;;;5076495;28;20028;-20
2023/07/10 01:34:40;;;;;;;3.58;3.38;;;;;;;;;;5076564;28;20048;-20
2023/07/10 01:37:07;;;;;;;3.72;3.53;;;;;;;;;;5076195;28;20028;-22
2023/07/10 01:39:44;;;;;;;3.38;3.17;;;;;;;;;;5076220;28;20052;-21
2023/07/10 01:42:11;;;;;;;4.00;3.80;;;;;;;;;;5076232;28;20029;-22
2023/07/10 01:44:39;;;;;;;3.80;3.60;;;;;;;;;;5076131;28;20078;-25
2023/07/10 01:47:07;;;;;;;3.30;3.10;;;;;;;;;;5076054;28;20020;-20
2023/07/10 01:49:42;;;;;;;3.08;2.97;;;;;;;;;;5075910;28;20016;-21
2023/07/10 01:52:09;;;;;;;3.65;3.45;;;;;;;;;;5076133;28;20104;-26
2023/07/10 01:54:35;;;;;;;3.15;2.97;;;;;;;;;;5075478;28;20074;-21
2023/07/10 01:57:01;;;;;;;3.17;3.00;;;;;;;;;;5076115;28;20071;-20
2023/07/10 01:59:27;;;;;;;3.67;3.47;;;;;;;;;;5075774;28;20029;-23
2023/07/10 02:01:54;;;;;;;3.10;2.90;;;;;;;;;;5076109;28;20025;-20
2023/07/10 02:04:21;;;;;;;3.60;3.35;;;;;;;;;;5075713;28;20051;-19
2023/07/10 02:06:47;;;;;;;3.75;3.55;;;;;;;;;;5075664;28;20037;-23
2023/07/10 02:09:13;;;;;;;3.58;3.38;;;;;;;;;;5075853;28;20029;-20
2023/07/10 02:11:39;;;;;;;3.88;3.58;;;;;;;;;;5075534;28;20144;-19
2023/07/10 02:14:06;;;;;;;3.03;2.92;;;;;;;;;;5075663;28;20112;-20
2023/07/10 02:16:32;;;;;;;3.35;3.15;;;;;;;;;;5075400;28;20020;-17
2023/07/10 02:18:59;;;;;;;3.35;3.15;;;;;;;;;;5075418;28;20121;-22
2023/07/10 02:21:25;;;;;;;3.17;3.08;;;;;;;;;;5075283;28;20517;-26
2023/07/10 02:23:52;;;;;;;3.53;3.33;;;;;;;;;;5075239;28;20333;-20
2023/07/10 02:26:18;;;;;;;3.65;3.45;;;;;;;;;;5075529;28;20409;-23
2023/07/10 02:28:45;;;;;;;3.47;3.28;;;;;;;;;;5075498;28;20024;-21
2023/07/10 02:31:11;;;;;;;3.28;3.08;;;;;;;;;;5075126;28;20107;-26
2023/07/10 02:33:37;;;;;;;3.05;2.85;;;;;;;;;;5075078;28;20028;-20
2023/07/10 02:36:03;;;;;;;3.42;3.22;;;;;;;;;;5075107;28;20021;-21
2023/07/10 02:38:29;;;;;;;3.70;3.40;;;;;;;;;;5075309;28;20067;-20
2023/07/10 02:40:56;;;;;;;3.75;3.55;;;;;;;;;;5075212;28;20455;-20
2023/07/10 02:43:22;;;;;;;3.47;3.28;;;;;;;;;;5074876;28;20020;-22
2023/07/10 02:45:48;;;;;;;3.42;3.22;;;;;;;;;;5075481;28;20100;-17
2023/07/10 02:48:14;;;;;;;3.65;3.35;;;;;;;;;;5074890;28;20024;-21
2023/07/10 02:50:42;;;;;;;4.00;3.80;;;;;;;;;;5074867;28;20023;-21
2023/07/10 02:53:08;;;;;;;3.25;3.05;;;;;;;;;;5074754;28;20021;-23
2023/07/10 02:55:34;;;;;;;3.67;3.10;;;;;;;;;;5074811;28;20111;-22
2023/07/10 02:58:00;;;;;;;3.90;3.70;;;;;;;;;;5074798;28;20040;-23
2023/07/10 03:00:26;;;;;;;3.35;3.15;;;;;;;;;;5074669;28;20048;-21
2023/07/10 03:02:56;;;;;;;3.10;3.00;;;;;;;;;;5074885;28;20337;-27
2023/07/10 03:05:23;;;;;;;3.13;2.92;;;;;;;;;;5073741;28;20040;-22
2023/07/10 03:07:49;;;;;;;3.05;2.95;;;;;;;;;;5074997;28;20017;-23
2023/07/10 03:10:15;;;;;;;2.80;2.70;;;;;;;;;;5074690;28;20032;-20
2023/07/10 03:12:42;;;;;;;3.30;3.13;;;;;;;;;;5056908;28;20474;-20
2023/07/10 03:15:08;;;;;;;3.40;3.20;;;;;;;;;;5074623;28;20067;-19
2023/07/10 03:17:34;;;;;;;3.30;3.10;;;;;;;;;;5074617;28;20032;-20
2023/07/10 03:20:00;;;;;;;3.72;3.53;;;;;;;;;;5074518;28;20021;-20
2023/07/10 03:22:26;;;;;;;2.95;2.85;;;;;;;;;;5074364;28;20032;-20
2023/07/10 03:24:53;;;;;;;3.15;2.95;;;;;;;;;;5074583;28;20020;-21
2023/07/10 03:27:19;;;;;;;2.95;2.85;;;;;;;;;;5074512;28;20032;-18
2023/07/10 03:29:45;;;;;;;3.25;3.05;;;;;;;;;;5074737;28;20103;-20
2023/07/10 03:32:12;;;;;;;2.80;2.65;;;;;;;;;;5074372;28;20032;-20
2023/07/10 03:34:38;;;;;;;3.13;2.92;;;;;;;;;;5074414;28;20029;-22
2023/07/10 03:37:04;;;;;;;3.55;3.25;;;;;;;;;;5074652;28;20035;-21
2023/07/10 03:39:30;;;;;;;3.20;3.00;;;;;;;;;;5074364;28;20027;-21
2023/07/10 03:41:57;;;;;;;3.22;3.03;;;;;;;;;;5074403;28;20024;-21
2023/07/10 03:44:23;;;;;;;3.75;3.53;;;;;;;;;;5056665;28;20035;-20
2023/07/10 03:46:49;;;;;;;3.05;2.85;;;;;;;;;;5074567;28;20523;-22
2023/07/10 03:49:15;;;;;;;2.95;2.83;;;;;;;;;;5074489;28;20024;-21
2023/07/10 03:51:41;;;;;;;3.65;3.45;;;;;;;;;;5074195;28;20058;-17
2023/07/10 03:54:08;;;;;;;3.13;2.92;;;;;;;;;;5074124;28;20459;-22
2023/07/10 03:56:35;;;;;;;5.97;3.22;;;;;;;;;;5056462;28;20048;-25
2023/07/10 03:59:01;;;;;;;2.55;2.45;;;;;;;;;;5074159;28;20067;-19
2023/07/10 04:01:27;;;;;;;3.28;3.08;;;;;;;;;;5074280;28;20447;-21
2023/07/10 04:03:53;;;;;;;2.75;2.65;;;;;;;;;;5074034;28;20029;-21
2023/07/10 04:06:20;;;;;;;3.28;2.90;;;;;;;;;;5073870;28;20044;-20
2023/07/10 04:08:47;;;;;;;3.38;3.13;;;;;;;;;;5074279;28;20352;-21
2023/07/10 04:11:15;;;;;;;2.85;2.75;;;;;;;;;;5056103;28;20028;-18
2023/07/10 04:13:41;;;;;;;2.80;2.70;;;;;;;;;;5073952;28;20037;-21
2023/07/10 04:16:12;;;;;;;3.97;2.83;;;;;;;;;;5074036;28;20111;-20
2023/07/10 04:18:39;;;;;;;3.20;3.00;;;;;;;;;;5077353;28;20029;-23
2023/07/10 04:21:06;;;;;;;3.28;3.08;;;;;;;;;;5059368;28;20059;-22
2023/07/10 04:23:33;;;;;;;3.42;3.22;;;;;;;;;;5077227;28;20108;-20
2023/07/10 04:25:59;;;;;;;3.88;3.10;;;;;;;;;;5077518;28;20104;-20
2023/07/10 04:28:25;;;;;;;3.67;3.47;;;;;;;;;;5077345;28;20027;-19
2023/07/10 04:30:53;;;;;;;2.92;2.83;;;;;;;;;;5077314;28;20097;-21
2023/07/10 04:33:19;;;;;;;3.83;3.63;;;;;;;;;;5077177;28;20051;-22
2023/07/10 04:35:51;;;;;;;3.75;3.17;;;;;;;;;;5077271;28;20051;-20
2023/07/10 04:38:18;;;;;;;3.55;3.35;;;;;;;;;;5077252;28;20333;-21
2023/07/10 04:41:03;;;;;;;3.47;3.28;;;;;;;;;;5076771;28;20032;-23
2023/07/10 04:43:30;;;;;;;4.70;3.65;;;;;;;;;;5058969;28;20017;-24
2023/07/10 04:45:57;;;;;;;4.65;3.45;;;;;;;;;;5059165;28;20025;-17
2023/07/10 04:48:24;;;;;;;9.15;3.90;;;;;;;;;;5077026;28;20024;-20
2023/07/10 04:50:50;;;;;;;5.15;3.03;;;;;;;;;;5076812;28;20463;-20
2023/07/10 04:53:17;;;;;;;3.80;3.22;;;;;;;;;;5076717;28;20048;-17
2023/07/10 04:55:43;;;;;;;3.63;3.42;;;;;;;;;;5076750;28;20034;-20
2023/07/10 04:58:10;;;;;;;11.18;3.33;;;;;;;;;;5076622;28;20032;-24
2023/07/10 05:00:36;;;;;;;3.53;3.30;;;;;;;;;;5076791;28;20044;-23
2023/07/10 05:03:03;;;;;;;4.18;3.50;;;;;;;;;;5076485;28;20031;-23
2023/07/10 05:05:29;;;;;;;10.50;3.97;;;;;;;;;;5076484;28;20044;-21
2023/07/10 05:07:55;;;;;;;7.82;3.75;;;;;;;;;;5058859;28;20059;-22
2023/07/10 05:10:22;;;;;;;27.98;4.50;;;;;;;;;;5058693;28;20032;-25
2023/07/10 05:12:48;;;;;;;5.53;4.15;;;;;;;;;;5076140;28;20064;-25
2023/07/10 05:15:14;;;;;;;6.07;2.95;;;;;;;;;;5076385;28;20025;-21
2023/07/10 05:17:43;;;;;;;10.18;4.57;;;;;;;;;;5076426;28;20032;-18
2023/07/10 05:20:10;;;;;;;15.70;3.55;;;;;;;;;;5076212;28;20455;-21
2023/07/10 05:22:36;;;;;;;13.02;4.07;;;;;;;;;;5058575;28;20459;-26
2023/07/10 05:25:03;;;;;;;13.98;4.18;;;;;;;;;;5076186;28;20024;-19
2023/07/10 05:27:32;;;;;;;8.38;3.58;;;;;;;;;;5075988;28;20028;-24
2023/07/10 05:29:58;;;;;;;8.00;4.03;;;;;;;;;;5075723;28;20045;-20
2023/07/10 05:32:24;;;;;;;8.73;4.10;;;;;;;;;;5076350;28;20038;-20
2023/07/10 05:34:51;;;;;;;4.40;3.85;;;;;;;;;;5076317;28;20109;-20
2023/07/10 05:37:17;;;;;;;4.68;3.88;;;;;;;;;;5075951;28;20028;-25
2023/07/10 05:39:43;;;;;;;3.50;3.20;;;;;;;;;;5075940;28;20094;-20
2023/07/10 05:42:09;;;;;;;4.85;3.78;;;;;;;;;;5075781;28;20375;-18
2023/07/10 05:44:35;;;;;;;13.77;4.55;;;;;;;;;;5075783;28;20024;-18
2023/07/10 05:47:01;;;;;;;3.53;3.33;;;;;;;;;;5075851;28;20052;-20
2023/07/10 05:49:28;;;;;;;5.95;4.75;;;;;;;;;;5076038;28;20021;-22
2023/07/10 05:51:54;;;;;;;7.85;3.47;;;;;;;;;;5075673;28;20470;-21
2023/07/10 05:54:20;;;;;;;6.47;3.97;;;;;;;;;;5076049;28;20060;-20
2023/07/10 05:56:47;;;;;;;4.45;3.20;;;;;;;;;;5075718;28;20063;-20
2023/07/10 05:59:14;;;;;;;5.03;3.60;;;;;;;;;;5076186;28;20028;-20
2023/07/10 06:04:16;;;;;;;3.47;3.17;;;;;;;;;;4669229;26;20049;-31
2023/07/10 06:06:42;;;;;;;6.05;3.35;;;;;;;;;;5035760;28;20021;-30
2023/07/10 06:09:09;;;;;;;5.57;4.05;;;;;;;;;;5036069;28;20018;-31
2023/07/10 06:11:35;;;;;;;4.28;3.05;;;;;;;;;;5035757;28;20041;-29
2023/07/10 06:14:01;;;;;;;4.80;4.00;;;;;;;;;;5035370;28;20029;-28
2023/07/10 06:16:27;;;;;;;4.03;3.70;;;;;;;;;;5035251;28;20044;-28
2023/07/10 06:18:54;;;;;;;12.40;3.45;;;;;;;;;;5035338;28;20525;-31
2023/07/10 06:21:20;;;;;;;7.20;3.47;;;;;;;;;;5035556;28;20030;-28
2023/07/10 06:23:46;;;;;;;8.77;4.50;;;;;;;;;;5035182;28;20087;-30
2023/07/10 06:26:12;;;;;;;5.97;3.60;;;;;;;;;;5035401;28;20025;-29
2023/07/10 06:28:38;;;;;;;5.50;2.90;;;;;;;;;;5035095;28;20025;-30
2023/07/10 06:31:09;;;;;;;7.60;3.72;;;;;;;;;;5035366;28;20163;-29
2023/07/10 06:33:36;;;;;;;6.40;3.15;;;;;;;;;;5035287;28;20057;-29
2023/07/10 06:36:04;;;;;;;9.85;3.53;;;;;;;;;;5035269;28;20519;-31
2023/07/10 06:38:30;;;;;;;6.45;3.88;;;;;;;;;;5035362;28;20337;-30
2023/07/10 06:40:56;;;;;;;4.05;3.42;;;;;;;;;;5035186;28;20036;-31
2023/07/10 06:43:23;;;;;;;3.55;3.17;;;;;;;;;;5035155;28;20041;-31
2023/07/10 06:45:49;;;;;;;3.30;3.10;;;;;;;;;;5035035;28;20022;-31
2023/07/10 06:48:16;;;;;;;3.50;3.20;;;;;;;;;;5034980;28;20415;-30
2023/07/10 06:50:46;;;;;;;6.03;4.20;;;;;;;;;;5018025;28;20055;-31
2023/07/10 06:53:12;;;;;;;11.95;3.60;;;;;;;;;;5035125;28;20336;-31
2023/07/10 06:55:40;;;;;;;6.82;3.88;;;;;;;;;;5035215;28;20021;-33
2023/07/10 06:58:06;;;;;;;4.25;3.80;;;;;;;;;;5034955;28;20021;-31
2023/07/10 07:00:32;;;;;;;5.22;3.83;;;;;;;;;;5034729;28;20029;-32
2023/07/10 07:02:59;;;;;;;6.38;4.03;;;;;;;;;;5034415;28;20124;-29
2023/07/10 07:05:25;;;;;;;5.47;4.30;;;;;;;;;;5034915;28;20033;-31
2023/07/10 07:07:51;;;;;;;8.60;4.05;;;;;;;;;;5035255;28;20060;-30
2023/07/10 07:10:17;;;;;;;4.47;3.58;;;;;;;;;;5017260;28;20358;-27
2023/07/10 07:12:43;;;;;;;4.40;3.38;;;;;;;;;;5034512;28;20415;-28
2023/07/10 07:15:11;;;;;;;7.90;3.80;;;;;;;;;;5034591;28;20028;-31
2023/07/10 07:17:37;;;;;;;11.38;3.65;;;;;;;;;;5034800;28;20113;-30
2023/07/10 07:20:04;;;;;;;6.03;3.30;;;;;;;;;;5034621;28;20049;-27
2023/07/10 07:22:30;;;;;;;6.45;3.80;;;;;;;;;;5034387;28;20041;-31
2023/07/10 07:24:56;;;;;;;4.20;3.80;;;;;;;;;;5034429;28;20108;-31
2023/07/10 07:27:23;;;;;;;10.27;4.10;;;;;;;;;;5034532;28;20021;-29
2023/07/10 07:29:51;;;;;;;5.60;3.45;;;;;;;;;;5034430;28;20021;-30
2023/07/10 07:32:18;;;;;;;7.00;2.85;;;;;;;;;;5034295;28;20022;-30
2023/07/10 07:34:45;;;;;;;4.63;3.47;;;;;;;;;;5034631;28;20017;-29
2023/07/10 07:37:14;;;;;;;7.85;3.50;;;;;;;;;;5034304;28;20083;-27
2023/07/10 07:39:40;;;;;;;5.40;4.15;;;;;;;;;;5034620;28;20018;-31
2023/07/10 07:42:06;;;;;;;6.45;3.75;;;;;;;;;;5017013;28;20029;-31
2023/07/10 07:44:32;;;;;;;9.82;3.63;;;;;;;;;;5034304;28;20022;-30
2023/07/10 07:46:59;;;;;;;4.15;3.72;;;;;;;;;;5016861;28;20456;-29
2023/07/10 07:49:25;;;;;;;9.35;4.40;;;;;;;;;;5034256;28;20109;-29
2023/07/10 07:51:52;;;;;;;4.75;3.80;;;;;;;;;;5035679;28;20037;-31
2023/07/10 07:54:18;;;;;;;5.53;3.58;;;;;;;;;;5038371;28;20021;-28
2023/07/10 07:56:45;;;;;;;7.25;4.40;;;;;;;;;;5038272;28;20068;-30
2023/07/10 07:59:11;;;;;;;9.25;4.50;;;;;;;;;;5038119;28;20049;-32
2023/07/10 08:01:37;;;;;;;15.88;4.10;;;;;;;;;;5038391;28;20029;-29
2023/07/10 08:04:03;;;;;;;8.05;2.90;;;;;;;;;;5037817;28;20060;-31
2023/07/10 08:06:31;;;;;;;5.32;4.75;;;;;;;;;;5038222;28;20030;-32
2023/07/10 08:08:57;;;;;;;11.80;4.30;;;;;;;;;;5038258;28;20029;-30
2023/07/10 08:11:23;;;;;;;3.85;3.45;;;;;;;;;;5037763;28;20014;-31
2023/07/10 08:13:50;;;;;;;6.57;3.40;;;;;;;;;;5037703;28;20025;-29
2023/07/10 08:16:16;;;;;;;8.57;3.30;;;;;;;;;;5037805;28;20025;-31
2023/07/10 08:18:43;;;;;;;7.13;4.25;;;;;;;;;;5038004;28;20017;-26
2023/07/10 08:21:12;;;;;;;4.43;3.83;;;;;;;;;;5020256;28;20105;-30
2023/07/10 08:23:38;;;;;;;4.63;3.90;;;;;;;;;;5020239;28;20029;-31
2023/07/10 08:26:05;;;;;;;6.55;3.85;;;;;;;;;;5037646;28;20456;-26
2023/07/10 08:28:31;;;;;;;6.20;4.95;;;;;;;;;;5037638;28;20044;-30
2023/07/10 08:30:58;;;;;;;6.38;3.40;;;;;;;;;;5038197;28;20108;-30
2023/07/10 08:33:24;;;;;;;8.57;4.18;;;;;;;;;;5037277;28;20075;-32
2023/07/10 08:35:54;;;;;;;5.25;4.47;;;;;;;;;;5037498;28;20083;-27
2023/07/10 08:38:20;;;;;;;6.95;3.72;;;;;;;;;;5037385;28;20036;-30
2023/07/10 08:40:48;;;;;;;11.43;4.35;;;;;;;;;;5037537;28;20029;-30
2023/07/10 08:43:26;;;;;;;8.77;4.22;;;;;;;;;;5037370;28;20379;-30
2023/07/10 08:45:54;;;;;;;12.80;5.05;;;;;;;;;;5038071;28;20387;-31
2023/07/10 08:48:32;;;;;;;8.48;3.78;;;;;;;;;;5037256;28;20372;-31
2023/07/10 08:51:00;;;;;;;9.98;4.40;;;;;;;;;;5037310;28;20025;-30
2023/07/10 08:53:31;;;;;;;7.47;4.15;;;;;;;;;;5037232;28;20025;-30
2023/07/10 08:56:16;;;;;;;7.93;4.47;;;;;;;;;;5037368;28;20068;-31
2023/07/10 08:58:42;;;;;;;6.35;4.15;;;;;;;;;;5037628;28;20026;-29
2023/07/10 09:01:16;;;;;;;9.63;4.28;;;;;;;;;;5037018;28;20021;-33
2023/07/10 09:03:44;;;;;;;8.27;4.88;;;;;;;;;;5035560;28;20042;-27
2023/07/10 09:06:16;;;;;;;21.17;6.38;;;;;;;;;;5036981;28;20349;-29
2023/07/10 09:08:43;;;;;;;3.88;2.92;;;;;;;;;;5037424;28;20106;-31
2023/07/10 09:11:12;;;;;;;7.30;4.00;;;;;;;;;;5037044;28;20025;-38
2023/07/10 09:13:38;;;;;;;7.20;4.30;;;;;;;;;;5036530;28;20060;-30
2023/07/10 09:16:12;;;;;;;13.10;4.60;;;;;;;;;;5037031;28;20082;-29
2023/07/10 09:18:41;;;;;;;10.35;4.72;;;;;;;;;;5036976;28;20025;-29
2023/07/10 09:21:18;;;;;;;10.80;3.85;;;;;;;;;;5036902;28;20032;-28
2023/07/10 09:23:46;;;;;;;8.43;4.30;;;;;;;;;;5036775;28;20032;-30
2023/07/10 09:26:14;;;;;;;5.30;3.58;;;;;;;;;;5036663;28;20021;-30
2023/07/10 09:28:40;;;;;;;11.43;4.22;;;;;;;;;;5036483;28;20033;-28
2023/07/10 09:31:09;;;;;;;6.18;4.15;;;;;;;;;;5036424;28;20029;-31
2023/07/10 09:33:42;;;;;;;5.60;3.78;;;;;;;;;;5036247;28;20035;-31
2023/07/10 09:36:12;;;;;;;6.70;4.45;;;;;;;;;;5018834;28;20360;-30
2023/07/10 09:38:38;;;;;;;7.38;4.05;;;;;;;;;;5036505;28;20029;-31
2023/07/10 09:41:10;;;;;;;12.80;4.82;;;;;;;;;;5036198;28;20049;-30
2023/07/10 09:43:37;;;;;;;6.70;4.07;;;;;;;;;;5036134;28;20026;-32
2023/07/10 09:46:04;;;;;;;12.73;4.28;;;;;;;;;;5036991;28;20025;-29
2023/07/10 09:48:30;;;;;;;9.98;4.60;;;;;;;;;;5036118;28;20030;-29
2023/07/10 09:50:57;;;;;;;12.35;5.40;;;;;;;;;;5036168;28;20049;-31
2023/07/10 09:53:25;;;;;;;13.55;4.15;;;;;;;;;;5018283;28;20163;-30
2023/07/10 09:55:51;;;;;;;17.23;4.95;;;;;;;;;;5035914;28;20032;-29
2023/07/10 09:58:17;;;;;;;11.68;4.20;;;;;;;;;;5018372;28;20048;-29
2023/07/10 10:00:48;;;;;;;9.57;4.75;;;;;;;;;;5035609;28;20021;-30
2023/07/10 10:03:14;;;;;;;;;;;;;;;;;;5035895;28;20099;-30
2023/07/10 10:05:41;;;;;;;11.43;4.75;;;;;;;;;;5035985;28;19908;-32
2023/07/10 10:08:37;;;;;;;14.20;4.28;;;;;;;;;;5035808;28;20029;-29
2023/07/10 10:11:07;;;;;;;7.38;4.95;;;;;;;;;;5027037;28;20065;-31
2023/07/10 10:13:36;;;;;;;9.32;4.95;;;;;;;;;;5035985;28;20041;-28
2023/07/10 10:16:09;;;;;;;7.75;4.15;;;;;;;;;;5035185;28;20040;-31
2023/07/10 10:18:46;;;;;;;9.10;4.72;;;;;;;;;;5035754;28;20572;-30
2023/07/10 10:21:13;;;;;;;7.63;4.18;;;;;;;;;;5017986;28;20112;-30
2023/07/10 10:23:41;;;;;;;6.88;4.50;;;;;;;;;;5035165;28;20095;-31
2023/07/10 10:26:43;;;;;;;7.07;4.72;;;;;;;;;;5035429;28;20026;-30
2023/07/10 10:29:28;;;;;;;6.93;4.47;;;;;;;;;;4994479;28;20022;-30
2023/07/10 10:32:01;;;;;;;9.25;4.75;;;;;;;;;;5032833;28;20045;-28
2023/07/10 10:34:49;;;;;;;5.95;4.13;;;;;;;;;;5035687;28;20452;-30
2023/07/10 10:37:31;;;;;;;6.07;4.50;;;;;;;;;;5035423;28;20043;-29
2023/07/10 10:40:02;;;;;;;9.02;4.90;;;;;;;;;;5035334;28;20313;-30
2023/07/10 10:42:50;;;;;;;8.52;5.03;;;;;;;;;;5034900;28;20069;-30
2023/07/10 10:45:32;;;;;;;8.07;4.47;;;;;;;;;;5034922;28;20052;-34
2023/07/10 10:48:04;;;;;;;7.88;4.70;;;;;;;;;;5035359;28;20025;-32
2023/07/10 10:50:30;;;;;;;8.60;5.15;;;;;;;;;;5035169;28;20357;-28
2023/07/10 10:53:05;;;;;;;9.80;6.25;;;;;;;;;;5034855;28;20028;-30
2023/07/10 10:55:31;;;;;;;11.82;4.15;;;;;;;;;;5035168;28;20018;-30
2023/07/10 10:58:04;;;;;;;5.82;3.70;;;;;;;;;;5035235;28;20025;-31
2023/07/10 11:00:49;;;;;;;9.02;3.83;;;;;;;;;;5034859;28;20360;-28
2023/07/10 11:03:21;;;;;;;11.20;4.40;;;;;;;;;;5034659;28;20045;-27
2023/07/10 11:05:49;;;;;;;7.80;4.20;;;;;;;;;;5034643;28;20017;-31
2023/07/10 11:08:19;;;;;;;12.20;4.63;;;;;;;;;;5034715;28;20029;-30
2023/07/10 11:10:46;;;;;;;11.40;4.13;;;;;;;;;;5034721;28;20040;-32
2023/07/10 11:13:19;;;;;;;6.03;5.50;;;;;;;;;;5034410;28;20108;-30
2023/07/10 11:15:45;;;;;;;9.18;4.97;;;;;;;;;;5034701;28;20045;-28
2023/07/10 11:18:15;;;;;;;9.07;4.70;;;;;;;;;;5034403;28;20409;-30
2023/07/10 11:20:41;;;;;;;8.20;4.57;;;;;;;;;;5016685;28;20511;-31
2023/07/10 11:23:27;;;;;;;11.95;4.45;;;;;;;;;;5034530;28;20030;-28
2023/07/10 11:26:19;;;;;;;9.65;3.80;;;;;;;;;;5033713;28;20102;-31
2023/07/10 11:28:56;;;;;;;9.80;4.80;;;;;;;;;;5015042;28;20041;-31
2023/07/10 11:31:30;;;;;;;10.32;4.40;;;;;;;;;;5034595;28;20029;-31
2023/07/10 11:34:05;;;;;;;6.88;4.05;;;;;;;;;;5034330;28;20065;-31
2023/07/10 11:36:34;;;;;;;5.00;4.25;;;;;;;;;;5034647;28;20032;-30
2023/07/10 11:39:11;;;;;;;8.07;4.78;;;;;;;;;;5034620;28;20022;-31
2023/07/10 11:41:44;;;;;;;8.77;4.32;;;;;;;;;;5034778;28;20035;-26
2023/07/10 11:44:28;;;;;;;5.95;4.38;;;;;;;;;;5034434;28;20022;-28
2023/07/10 11:46:55;;;;;;;6.88;4.78;;;;;;;;;;5016960;28;20452;-30
2023/07/10 11:49:21;;;;;;;11.68;5.72;;;;;;;;;;5034435;28;20030;-31
2023/07/10 11:52:07;;;;;;;7.10;4.47;;;;;;;;;;5034197;28;20041;-31
2023/07/10 11:54:33;;;;;;;5.07;4.10;;;;;;;;;;5027253;28;20075;-32
2023/07/10 11:57:02;;;;;;;7.60;4.68;;;;;;;;;;5034164;28;20094;-31
2023/07/10 11:59:28;;;;;;;5.63;4.53;;;;;;;;;;5034182;28;20029;-28
2023/07/10 12:01:54;;;;;;;7.80;5.55;;;;;;;;;;5016650;28;20060;-30
2023/07/10 12:04:22;;;;;;;14.60;6.10;;;;;;;;;;5034044;28;20468;-29
2023/07/10 12:06:49;;;;;;;6.63;4.25;;;;;;;;;;5034172;28;20030;-30
2023/07/10 12:09:15;;;;;;;15.27;4.78;;;;;;;;;;5034238;28;20068;-31
2023/07/10 12:11:41;;;;;;;6.70;3.90;;;;;;;;;;5034097;28;20440;-32
2023/07/10 12:14:16;;;;;;;14.88;4.85;;;;;;;;;;5033895;28;20025;-30
2023/07/10 12:16:48;;;;;;;7.65;4.80;;;;;;;;;;5016669;28;20403;-29
2023/07/10 12:19:16;;;;;;;14.38;5.80;;;;;;;;;;5034223;28;20041;-30
2023/07/10 12:21:43;;;;;;;12.45;4.85;;;;;;;;;;5033936;28;20029;-32
2023/07/10 12:24:12;;;;;;;5.93;4.78;;;;;;;;;;5017074;28;20017;-28
2023/07/10 12:26:39;;;;;;;7.60;5.10;;;;;;;;;;5034131;28;20036;-30
2023/07/10 12:29:06;;;;;;;6.35;4.82;;;;;;;;;;5016464;28;20028;-29
2023/07/10 12:31:33;;;;;;;5.35;4.72;;;;;;;;;;5034126;28;20031;-30
2023/07/10 12:34:01;;;;;;;5.22;4.28;;;;;;;;;;5033850;28;20372;-31
2023/07/10 12:36:28;;;;;;;9.07;4.88;;;;;;;;;;5034610;28;20056;-31
2023/07/10 12:38:59;;;;;;;12.43;4.43;;;;;;;;;;5036793;28;20040;-29
2023/07/10 12:41:25;;;;;;;8.63;5.70;;;;;;;;;;5037258;28;20112;-31
2023/07/10 12:44:02;;;;;;;7.80;5.03;;;;;;;;;;5037219;28;20068;-28
2023/07/10 12:46:29;;;;;;;5.82;4.07;;;;;;;;;;5037559;28;20032;-30
2023/07/10 12:49:15;;;;;;;13.15;4.43;;;;;;;;;;5037207;28;20021;-27
2023/07/10 12:51:47;;;;;;;5.60;5.20;;;;;;;;;;5037495;28;20095;-31
2023/07/10 12:54:25;;;;;;;8.57;5.22;;;;;;;;;;5019669;28;20032;-30
2023/07/10 12:56:53;;;;;;;20.00;5.95;;;;;;;;;;5036984;28;20110;-30
2023/07/10 12:59:22;;;;;;;9.98;4.85;;;;;;;;;;5036996;28;20030;-31
2023/07/10 13:01:50;;;;;;;9.73;5.25;;;;;;;;;;5019310;28;20108;-31
2023/07/10 13:04:16;;;;;;;12.27;4.35;;;;;;;;;;5036739;28;20073;-31
2023/07/10 13:06:44;;;;;;;6.88;5.07;;;;;;;;;;5036893;28;20040;-30
2023/07/10 13:09:18;;;;;;;9.13;4.25;;;;;;;;;;5019713;28;20360;-31
2023/07/10 13:11:44;;;;;;;8.57;4.30;;;;;;;;;;5036918;28;20359;-30
2023/07/10 13:14:22;;;;;;;12.13;5.70;;;;;;;;;;5036848;28;20112;-31
2023/07/10 13:16:48;;;;;;;11.07;4.63;;;;;;;;;;5019151;28;20029;-28
2023/07/10 13:19:15;;;;;;;4.63;3.88;;;;;;;;;;5036408;28;20045;-27
2023/07/10 13:21:41;;;;;;;10.40;4.93;;;;;;;;;;5036150;28;20087;-29
2023/07/10 13:24:07;;;;;;;6.50;3.95;;;;;;;;;;5018595;28;20467;-29
2023/07/10 13:26:33;;;;;;;7.97;5.38;;;;;;;;;;5036100;28;20032;-32
2023/07/10 13:28:59;;;;;;;7.97;4.85;;;;;;;;;;5036423;28;20028;-27
2023/07/10 13:31:28;;;;;;;7.95;4.85;;;;;;;;;;5035981;28;20040;-27
2023/07/10 13:33:54;;;;;;;6.35;4.65;;;;;;;;;;5036001;28;20082;-28
2023/07/10 13:36:22;;;;;;;9.50;4.95;;;;;;;;;;5018658;28;20059;-31
2023/07/10 13:38:48;;;;;;;36.10;5.53;;;;;;;;;;5035985;28;20033;-31
2023/07/10 13:41:16;;;;;;;5.70;5.07;;;;;;;;;;5035911;28;20036;-33
2023/07/10 13:43:42;;;;;;;5.57;4.55;;;;;;;;;;5036097;28;20033;-28
2023/07/10 13:46:28;;;;;;;8.98;4.90;;;;;;;;;;5036521;28;20038;-30
2023/07/10 13:48:56;;;;;;;7.47;4.65;;;;;;;;;;5035557;28;20033;-30
2023/07/10 13:51:23;;;;;;;9.68;4.68;;;;;;;;;;5036010;28;20030;-31
2023/07/10 13:53:50;;;;;;;9.45;4.28;;;;;;;;;;5036246;28;20057;-29
2023/07/10 13:56:19;;;;;;;5.50;4.35;;;;;;;;;;5035983;28;20025;-33
2023/07/10 13:58:45;;;;;;;10.32;4.57;;;;;;;;;;5018365;28;20037;-31
2023/07/10 14:01:13;;;;;;;9.65;5.47;;;;;;;;;;5035604;28;20049;-31
2023/07/10 14:03:40;;;;;;;13.13;4.38;;;;;;;;;;5035611;28;20371;-28
2023/07/10 14:06:24;;;;;;;9.73;4.68;;;;;;;;;;5018293;28;20128;-30
2023/07/10 14:08:59;;;;;;;4.70;4.38;;;;;;;;;;5018138;28;20452;-28
2023/07/10 14:11:26;;;;;;;8.18;4.55;;;;;;;;;;5035687;28;20041;-30
2023/07/10 14:13:52;;;;;;;5.38;4.93;;;;;;;;;;5035706;28;20029;-32
2023/07/10 14:16:20;;;;;;;6.32;4.68;;;;;;;;;;5035913;28;20026;-28
2023/07/10 14:18:47;;;;;;;7.47;4.47;;;;;;;;;;5035747;28;20488;-28
2023/07/10 14:21:14;;;;;;;6.05;3.95;;;;;;;;;;5035537;28;20037;-29
2023/07/10 14:23:40;;;;;;;6.95;4.57;;;;;;;;;;5035656;28;20021;-29
2023/07/10 14:26:27;;;;;;;6.97;5.00;;;;;;;;;;5035623;28;20025;-30
2023/07/10 14:28:53;;;;;;;5.47;4.43;;;;;;;;;;5035873;28;20037;-30
2023/07/10 14:31:20;;;;;;;6.95;4.88;;;;;;;;;;5035281;28;20049;-28
2023/07/10 14:33:46;;;;;;;9.90;4.60;;;;;;;;;;5034949;28;20045;-28
2023/07/10 14:36:19;;;;;;;8.73;5.13;;;;;;;;;;5034954;28;20029;-33
2023/07/10 14:38:45;;;;;;;6.80;5.50;;;;;;;;;;5035412;28;20407;-31
2023/07/10 14:41:14;;;;;;;4.72;4.28;;;;;;;;;;5034834;28;20037;-28
2023/07/10 14:43:41;;;;;;;9.13;4.78;;;;;;;;;;5035005;28;20465;-29
2023/07/10 14:46:12;;;;;;;7.20;4.78;;;;;;;;;;5035302;28;20398;-29
2023/07/10 14:48:38;;;;;;;11.73;5.60;;;;;;;;;;5034931;28;20460;-30
2023/07/10 14:51:04;;;;;;;10.27;5.05;;;;;;;;;;5035281;28;20030;-29